createdAt,value
2017-12-29T00:01:16.820Z,92.10
2017-12-29T00:03:44.371Z,92.10
2017-12-29T00:06:11.949Z,92.50
2017-12-29T00:08:39.590Z,92.60
2017-12-29T00:11:07.178Z,92.70
2017-12-29T00:13:34.727Z,92.30
2017-12-29T00:16:02.344Z,92.40
2017-12-29T00:18:29.928Z,92.40
2017-12-29T00:20:57.471Z,92.20
2017-12-29T00:23:25.065Z,92.20
2017-12-29T00:25:53.409Z,92.00
2017-12-29T00:28:20.955Z,92.00
2017-12-29T00:30:48.590Z,91.80
2017-12-29T00:33:16.399Z,91.40
2017-12-29T00:35:44.943Z,91.30
2017-12-29T00:38:12.507Z,91.20
2017-12-29T00:40:40.550Z,90.80
2017-12-29T00:43:08.120Z,90.60
2017-12-29T00:45:35.841Z,90.50
2017-12-29T00:48:03.379Z,90.20
2017-12-29T00:50:30.962Z,90.60
2017-12-29T00:52:58.551Z,90.60
2017-12-29T00:55:26.852Z,90.50
2017-12-29T00:57:54.383Z,90.50
2017-12-29T01:00:22.728Z,90.70
2017-12-29T01:02:50.262Z,90.70
2017-12-29T01:05:17.809Z,90.70
2017-12-29T01:07:45.384Z,90.60
2017-12-29T01:10:25.630Z,90.50
2017-12-29T01:15:25.067Z,90.60
2017-12-29T01:17:52.598Z,90.90
2017-12-29T01:20:20.128Z,91.00
2017-12-29T01:22:47.682Z,91.10
2017-12-29T01:25:15.635Z,91.00
2017-12-29T01:27:43.184Z,90.90
2017-12-29T01:30:10.747Z,90.80
2017-12-29T01:32:38.278Z,90.90
2017-12-29T01:35:05.816Z,90.60
2017-12-29T01:37:33.435Z,90.50
2017-12-29T01:40:00.971Z,90.60
2017-12-29T01:42:28.799Z,90.60
2017-12-29T01:44:56.363Z,90.90
2017-12-29T01:47:23.906Z,91.00
2017-12-29T01:49:51.443Z,91.20
2017-12-29T01:52:18.997Z,90.90
2017-12-29T01:54:46.535Z,91.00
2017-12-29T01:57:16.352Z,91.00
2017-12-29T01:59:43.981Z,91.00
2017-12-29T02:02:11.508Z,91.00
2017-12-29T02:04:39.047Z,90.90
2017-12-29T02:07:06.616Z,90.80
2017-12-29T02:09:34.211Z,90.70
2017-12-29T02:12:01.751Z,90.20
2017-12-29T02:14:30.078Z,90.60
2017-12-29T02:16:57.619Z,90.60
2017-12-29T02:19:25.147Z,90.50
2017-12-29T02:21:52.783Z,90.50
2017-12-29T02:24:20.310Z,90.50
2017-12-29T02:26:47.839Z,90.10
2017-12-29T02:29:16.452Z,90.10
2017-12-29T02:31:43.995Z,89.50
2017-12-29T02:34:11.536Z,89.50
2017-12-29T02:36:39.115Z,89.00
2017-12-29T02:39:06.653Z,89.70
2017-12-29T02:41:34.195Z,90.00
2017-12-29T02:44:02.220Z,90.20
2017-12-29T02:46:29.751Z,90.10
2017-12-29T02:48:57.280Z,90.30
2017-12-29T02:51:24.835Z,90.00
2017-12-29T02:53:52.362Z,89.60
2017-12-29T02:56:19.890Z,89.00
2017-12-29T02:58:48.254Z,89.20
2017-12-29T03:01:16.384Z,89.20
2017-12-29T03:03:43.928Z,89.40
2017-12-29T03:06:11.515Z,88.80
2017-12-29T03:08:39.064Z,88.80
2017-12-29T03:11:06.603Z,88.20
2017-12-29T03:13:34.359Z,87.70
2017-12-29T03:16:01.891Z,88.20
2017-12-29T03:18:29.427Z,88.40
2017-12-29T03:20:57.023Z,88.20
2017-12-29T03:23:25.322Z,87.10
2017-12-29T03:25:52.878Z,87.10
2017-12-29T03:28:20.478Z,87.20
2017-12-29T03:30:48.009Z,87.20
2017-12-29T03:33:16.386Z,87.70
2017-12-29T03:35:43.939Z,87.20
2017-12-29T03:38:11.483Z,87.40
2017-12-29T03:40:39.779Z,86.60
2017-12-29T03:43:07.343Z,86.40
2017-12-29T03:45:35.493Z,86.40
2017-12-29T03:48:03.027Z,86.50
2017-12-29T03:50:30.647Z,86.50
2017-12-29T03:52:58.178Z,86.00
2017-12-29T03:55:26.470Z,86.40
2017-12-29T03:57:54.064Z,86.40
2017-12-29T04:00:21.604Z,86.10
2017-12-29T04:02:49.157Z,86.10
2017-12-29T04:05:16.742Z,85.50
2017-12-29T04:07:44.282Z,85.50
2017-12-29T04:10:11.831Z,85.20
2017-12-29T04:12:39.419Z,85.50
2017-12-29T04:15:06.951Z,85.70
2017-12-29T04:17:34.504Z,86.00
2017-12-29T04:20:02.062Z,85.80
2017-12-29T04:22:29.596Z,85.70
2017-12-29T04:24:57.131Z,86.60
2017-12-29T04:27:24.691Z,85.80
2017-12-29T04:29:52.226Z,86.30
2017-12-29T04:32:19.759Z,86.60
2017-12-29T04:34:47.375Z,86.60
2017-12-29T04:37:16.447Z,87.20
2017-12-29T04:39:43.980Z,87.40
2017-12-29T04:42:11.534Z,87.20
2017-12-29T04:44:39.067Z,87.40
2017-12-29T04:47:06.734Z,87.20
2017-12-29T04:49:34.294Z,87.90
2017-12-29T04:52:01.840Z,88.10
2017-12-29T04:54:29.387Z,88.10
2017-12-29T04:56:57.004Z,86.60
2017-12-29T04:59:24.547Z,87.50
2017-12-29T05:01:52.847Z,86.60
2017-12-29T05:04:20.411Z,86.50
2017-12-29T05:06:48.698Z,86.00
2017-12-29T05:09:16.399Z,85.90
2017-12-29T05:11:43.956Z,85.50
2017-12-29T05:14:11.491Z,85.00
2017-12-29T05:16:39.023Z,84.60
2017-12-29T05:19:06.610Z,84.50
2017-12-29T05:21:34.149Z,85.10
2017-12-29T05:24:01.697Z,84.80
2017-12-29T05:26:29.270Z,84.70
2017-12-29T05:28:56.811Z,84.40
2017-12-29T05:31:24.351Z,83.80
2017-12-29T05:33:51.919Z,83.70
2017-12-29T05:36:19.464Z,83.80
2017-12-29T05:38:47.786Z,84.20
2017-12-29T05:41:16.458Z,84.10
2017-12-29T05:43:44.004Z,84.20
2017-12-29T05:46:12.334Z,84.70
2017-12-29T05:48:40.048Z,84.60
2017-12-29T05:51:07.628Z,85.30
2017-12-29T05:53:36.178Z,85.40
2017-12-29T05:56:03.743Z,85.40
2017-12-29T05:58:32.038Z,86.60
2017-12-29T06:00:59.570Z,86.10
2017-12-29T06:03:27.176Z,86.70
2017-12-29T06:05:54.708Z,87.40
2017-12-29T06:08:22.252Z,88.10
2017-12-29T06:10:49.814Z,88.40
2017-12-29T06:13:17.343Z,88.30
2017-12-29T06:15:44.873Z,88.10
2017-12-29T06:18:12.428Z,88.30
2017-12-29T06:20:39.959Z,88.10
2017-12-29T06:23:07.487Z,88.00
2017-12-29T06:25:35.398Z,87.60
2017-12-29T06:28:03.700Z,86.90
2017-12-29T06:30:32.010Z,86.90
2017-12-29T06:32:59.567Z,86.90
2017-12-29T06:35:27.099Z,86.60
2017-12-29T06:37:54.626Z,87.00
2017-12-29T06:40:22.182Z,86.70
2017-12-29T06:42:49.710Z,86.70
2017-12-29T06:45:17.238Z,86.80
2017-12-29T06:47:44.826Z,86.90
2017-12-29T06:50:12.599Z,87.20
2017-12-29T06:52:40.125Z,87.30
2017-12-29T06:55:07.694Z,87.90
2017-12-29T06:57:35.252Z,87.40
2017-12-29T07:00:02.787Z,87.10
2017-12-29T07:02:30.343Z,86.20
2017-12-29T07:04:57.887Z,85.50
2017-12-29T07:07:25.427Z,85.10
2017-12-29T07:09:53.053Z,85.00
2017-12-29T07:12:20.582Z,84.60
2017-12-29T07:14:48.123Z,84.50
2017-12-29T07:17:16.491Z,84.50
2017-12-29T07:19:44.064Z,85.10
2017-12-29T07:22:12.379Z,85.50
2017-12-29T07:24:39.938Z,85.40
2017-12-29T07:27:07.479Z,86.00
2017-12-29T07:29:35.019Z,85.70
2017-12-29T07:32:02.618Z,85.80
2017-12-29T07:34:30.162Z,86.20
2017-12-29T07:36:57.699Z,85.70
2017-12-29T07:39:26.039Z,85.00
2017-12-29T07:41:53.579Z,85.00
2017-12-29T07:44:21.139Z,84.90
2017-12-29T07:46:49.475Z,83.80
2017-12-29T07:49:17.785Z,84.70
2017-12-29T07:51:46.127Z,85.40
2017-12-29T07:54:15.536Z,85.10
2017-12-29T07:56:43.844Z,83.90
2017-12-29T07:59:11.378Z,83.80
2017-12-29T08:01:39.839Z,83.80
2017-12-29T08:04:07.416Z,83.70
2017-12-29T08:06:34.971Z,83.20
2017-12-29T08:09:03.304Z,83.50
2017-12-29T08:11:30.842Z,83.50
2017-12-29T08:13:58.379Z,83.60
2017-12-29T08:16:26.731Z,81.80
2017-12-29T08:18:54.262Z,81.80
2017-12-29T08:21:21.795Z,81.90
2017-12-29T08:23:49.346Z,81.20
2017-12-29T08:26:16.886Z,80.30
2017-12-29T08:28:44.474Z,78.90
2017-12-29T08:31:12.028Z,79.40
2017-12-29T08:33:39.585Z,79.50
2017-12-29T08:36:07.310Z,78.90
2017-12-29T08:38:34.898Z,78.30
2017-12-29T08:41:02.669Z,78.00
2017-12-29T08:43:31.719Z,78.00
2017-12-29T08:46:00.066Z,78.40
2017-12-29T08:48:27.599Z,77.90
2017-12-29T08:50:55.896Z,77.10
2017-12-29T08:53:23.798Z,77.10
2017-12-29T08:55:51.411Z,77.20
2017-12-29T08:58:18.955Z,76.80
2017-12-29T09:00:47.305Z,77.40
2017-12-29T09:03:16.395Z,77.40
2017-12-29T09:05:43.915Z,77.00
2017-12-29T09:08:11.662Z,77.00
2017-12-29T09:10:39.958Z,77.50
2017-12-29T09:13:07.487Z,77.50
2017-12-29T09:15:35.900Z,75.80
2017-12-29T09:18:03.534Z,75.80
2017-12-29T09:20:32.690Z,74.70
2017-12-29T09:23:01.766Z,74.60
2017-12-29T09:25:29.442Z,74.60
2017-12-29T09:27:56.983Z,74.70
2017-12-29T09:30:24.555Z,71.30
2017-12-29T09:32:52.239Z,67.80
2017-12-29T09:35:19.783Z,61.40
2017-12-29T09:37:47.355Z,61.20
2017-12-29T09:40:16.444Z,59.40
2017-12-29T09:42:43.977Z,57.30
2017-12-29T09:45:11.558Z,55.70
2017-12-29T09:47:39.087Z,57.00
2017-12-29T09:50:06.620Z,57.50
2017-12-29T09:52:34.938Z,60.10
2017-12-29T09:55:02.703Z,60.00
2017-12-29T09:57:30.283Z,60.10
2017-12-29T09:59:57.878Z,61.50
2017-12-29T10:02:25.399Z,60.70
2017-12-29T10:04:52.937Z,61.80
2017-12-29T10:07:20.570Z,62.20
2017-12-29T10:09:48.094Z,60.80
2017-12-29T10:12:16.415Z,60.80
2017-12-29T10:14:43.992Z,59.50
2017-12-29T10:17:11.557Z,59.40
2017-12-29T10:19:39.086Z,58.50
2017-12-29T10:22:06.788Z,58.10
2017-12-29T10:24:34.471Z,57.30
2017-12-29T10:27:02.000Z,57.90
2017-12-29T10:29:29.688Z,58.40
2017-12-29T10:31:57.236Z,60.10
2017-12-29T10:34:24.823Z,60.90
2017-12-29T10:36:52.384Z,62.70
2017-12-29T10:39:20.236Z,64.00
2017-12-29T10:41:47.832Z,63.70
2017-12-29T10:44:16.419Z,64.40
2017-12-29T10:46:44.718Z,65.20
2017-12-29T10:49:12.243Z,65.20
2017-12-29T10:51:39.828Z,66.60
2017-12-29T10:54:08.182Z,66.90
2017-12-29T10:56:36.057Z,66.80
2017-12-29T10:59:03.824Z,67.70
2017-12-29T11:01:31.379Z,67.10
2017-12-29T11:03:58.973Z,68.70
2017-12-29T11:06:28.055Z,67.70
2017-12-29T11:08:55.632Z,67.70
2017-12-29T11:11:23.171Z,68.60
2017-12-29T11:13:51.555Z,70.10
2017-12-29T11:16:19.879Z,69.50
2017-12-29T11:18:47.559Z,69.40
2017-12-29T11:21:16.541Z,69.10
2017-12-29T11:23:44.092Z,70.20
2017-12-29T11:26:11.678Z,71.10
2017-12-29T11:28:39.589Z,70.00
2017-12-29T11:31:07.251Z,69.90
2017-12-29T11:33:34.857Z,70.30
2017-12-29T11:36:02.673Z,70.00
2017-12-29T11:38:31.117Z,69.70
2017-12-29T11:40:59.768Z,69.60
2017-12-29T11:43:27.362Z,69.00
2017-12-29T11:45:55.881Z,66.80
2017-12-29T11:48:24.176Z,66.50
2017-12-29T11:50:51.722Z,66.50
2017-12-29T11:53:20.146Z,66.20
2017-12-29T11:55:47.666Z,66.10
2017-12-29T11:58:16.454Z,67.00
2017-12-29T12:00:44.004Z,68.30
2017-12-29T12:03:12.586Z,69.30
2017-12-29T12:05:40.179Z,69.20
2017-12-29T12:08:07.699Z,69.30
2017-12-29T12:10:36.187Z,69.60
2017-12-29T12:13:03.766Z,69.60
2017-12-29T12:15:31.323Z,70.50
2017-12-29T12:17:58.858Z,69.70
2017-12-29T12:20:26.514Z,70.40
2017-12-29T12:22:54.062Z,69.20
2017-12-29T12:25:22.389Z,69.60
2017-12-29T12:27:50.011Z,69.70
2017-12-29T12:30:17.539Z,69.60
2017-12-29T12:32:45.086Z,68.70
2017-12-29T12:35:12.645Z,68.20
2017-12-29T12:37:40.298Z,67.60
2017-12-29T12:40:07.831Z,67.50
2017-12-29T12:42:36.258Z,67.80
2017-12-29T12:45:03.859Z,67.80
2017-12-29T12:47:31.543Z,68.40
2017-12-29T12:49:59.923Z,67.60
2017-12-29T12:52:27.649Z,67.50
2017-12-29T12:54:55.262Z,67.60
2017-12-29T12:57:22.907Z,67.40
2017-12-29T12:59:51.579Z,67.80
2017-12-29T13:02:21.334Z,68.10
2017-12-29T13:04:49.351Z,68.10
2017-12-29T13:07:17.099Z,68.20
2017-12-29T13:09:45.460Z,66.80
2017-12-29T13:12:25.936Z,67.10
2017-12-29T13:17:41.483Z,68.20
2017-12-29T13:20:09.029Z,69.80
2017-12-29T13:22:37.505Z,69.20
2017-12-29T13:25:05.852Z,66.00
2017-12-29T13:27:33.487Z,65.90
2017-12-29T13:30:01.017Z,63.60
2017-12-29T13:32:29.346Z,64.40
2017-12-29T13:34:56.876Z,64.40
2017-12-29T13:37:24.407Z,63.20
2017-12-29T13:39:51.963Z,63.20
2017-12-29T13:42:19.488Z,62.30
2017-12-29T13:44:47.018Z,62.20
2017-12-29T13:47:15.589Z,61.90
2017-12-29T13:49:43.124Z,62.40
2017-12-29T13:52:11.469Z,62.30
2017-12-29T13:54:39.082Z,62.20
2017-12-29T13:57:06.611Z,62.70
2017-12-29T13:59:34.189Z,62.50
2017-12-29T14:02:02.499Z,63.20
2017-12-29T14:04:30.027Z,63.20
2017-12-29T14:06:58.408Z,62.60
2017-12-29T14:09:26.756Z,61.90
2017-12-29T14:11:54.280Z,61.80
2017-12-29T14:14:21.804Z,62.10
2017-12-29T14:16:50.160Z,62.80
2017-12-29T14:19:17.691Z,62.70
2017-12-29T14:21:45.383Z,63.50
2017-12-29T14:24:14.679Z,66.40
2017-12-29T14:26:42.212Z,67.30
2017-12-29T14:29:09.761Z,68.20
2017-12-29T14:31:38.115Z,68.80
2017-12-29T14:34:05.646Z,68.80
2017-12-29T14:36:33.325Z,69.40
2017-12-29T14:39:01.013Z,69.70
2017-12-29T14:41:28.552Z,70.10
2017-12-29T14:43:56.088Z,69.70
2017-12-29T14:46:23.653Z,70.10
2017-12-29T14:48:51.958Z,69.50
2017-12-29T14:51:19.482Z,69.50
2017-12-29T14:53:47.062Z,69.40
2017-12-29T14:56:15.494Z,69.90
2017-12-29T14:58:43.061Z,70.10
2017-12-29T15:01:11.419Z,70.00
2017-12-29T15:03:38.993Z,70.00
2017-12-29T15:06:06.754Z,69.90
2017-12-29T15:08:34.503Z,69.70
2017-12-29T15:11:02.374Z,69.00
2017-12-29T15:13:29.895Z,69.20
2017-12-29T15:15:58.694Z,70.00
2017-12-29T15:18:26.279Z,70.00
2017-12-29T15:20:53.827Z,70.40
2017-12-29T15:23:21.439Z,71.20
2017-12-29T15:25:49.209Z,72.00
2017-12-29T15:28:16.929Z,72.60
2017-12-29T15:30:46.024Z,73.10
2017-12-29T15:33:24.377Z,73.90
2017-12-29T15:44:22.027Z,73.90
2017-12-29T15:46:50.409Z,77.40
2017-12-29T15:49:18.063Z,77.30
2017-12-29T15:51:45.832Z,77.10
2017-12-29T15:54:24.634Z,77.20
2017-12-29T16:04:33.046Z,77.30
2017-12-29T16:07:00.643Z,77.30
2017-12-29T16:09:28.201Z,77.40
2017-12-29T16:11:55.763Z,77.50
2017-12-29T16:14:23.337Z,77.50
2017-12-29T16:16:50.990Z,77.60
2017-12-29T16:19:18.588Z,76.70
2017-12-29T16:21:46.163Z,76.20
2017-12-29T16:24:14.799Z,76.20
2017-12-29T16:26:42.408Z,76.70
2017-12-29T16:29:10.783Z,75.10
2017-12-29T16:31:38.501Z,74.90
2017-12-29T16:34:06.076Z,74.10
2017-12-29T16:36:33.640Z,73.80
2017-12-29T16:39:01.209Z,73.30
2017-12-29T16:41:29.639Z,74.10
2017-12-29T16:43:57.231Z,74.00
2017-12-29T16:46:24.846Z,74.40
2017-12-29T16:48:52.444Z,74.00
2017-12-29T16:51:20.021Z,73.80
2017-12-29T16:53:47.601Z,73.80
2017-12-29T16:56:17.202Z,75.00
2017-12-29T16:58:44.776Z,74.20
2017-12-29T17:01:14.045Z,74.80
2017-12-29T17:03:41.602Z,74.80
2017-12-29T17:06:09.581Z,75.00
2017-12-29T17:08:37.153Z,75.10
2017-12-29T17:11:04.774Z,74.90
2017-12-29T17:13:32.311Z,75.30
2017-12-29T17:16:00.217Z,75.40
2017-12-29T17:18:27.796Z,76.10
2017-12-29T17:20:56.094Z,77.60
2017-12-29T17:23:23.668Z,77.00
2017-12-29T17:25:51.379Z,76.80
2017-12-29T17:28:18.962Z,76.60
2017-12-29T17:30:46.520Z,76.60
2017-12-29T17:33:24.504Z,75.80
2017-12-29T17:39:31.942Z,75.20
2017-12-29T17:42:00.243Z,75.60
2017-12-29T17:44:27.830Z,75.60
2017-12-29T17:46:56.628Z,75.30
2017-12-29T17:49:24.186Z,75.50
2017-12-29T17:51:51.868Z,75.10
2017-12-29T17:54:19.794Z,75.50
2017-12-29T17:56:48.729Z,74.90
2017-12-29T17:59:16.595Z,75.10
2017-12-29T18:04:21.285Z,74.80
2017-12-29T18:06:50.676Z,75.30
2017-12-29T18:09:19.056Z,75.50
2017-12-29T18:11:52.700Z,75.50
2017-12-29T18:14:22.454Z,76.10
2017-12-29T18:16:55.336Z,75.90
2017-12-29T18:19:28.548Z,75.80
2017-12-29T18:21:56.159Z,75.80
2017-12-29T18:24:23.821Z,76.10
2017-12-29T18:26:51.516Z,76.10
2017-12-29T18:29:19.978Z,76.40
2017-12-29T18:31:48.652Z,77.10
2017-12-29T18:34:16.492Z,76.60
2017-12-29T18:36:44.086Z,76.60
2017-12-29T18:39:11.652Z,76.90
2017-12-29T18:41:39.411Z,77.40
2017-12-29T18:44:07.065Z,77.50
2017-12-29T18:46:34.624Z,77.30
2017-12-29T18:49:02.239Z,77.30
2017-12-29T18:54:17.967Z,77.20
2017-12-29T19:10:50.622Z,76.50
2017-12-29T19:13:31.739Z,76.50
2017-12-29T19:15:59.334Z,76.40
2017-12-29T19:18:27.058Z,76.40
2017-12-29T19:20:54.725Z,76.30
2017-12-29T19:23:22.403Z,76.70
2017-12-29T19:25:50.376Z,76.90
2017-12-29T19:28:18.014Z,77.80
2017-12-29T19:30:45.614Z,78.70
2017-12-29T19:33:14.571Z,80.70
2017-12-29T19:35:42.287Z,81.50
2017-12-29T19:38:10.028Z,82.80
2017-12-29T19:40:37.614Z,84.00
2017-12-29T19:43:05.968Z,83.70
2017-12-29T19:45:33.545Z,83.50
2017-12-29T19:48:01.895Z,83.70
2017-12-29T19:50:29.534Z,83.70
2017-12-29T19:52:57.886Z,85.70
2017-12-29T19:55:25.475Z,85.60
2017-12-29T19:57:53.119Z,86.20
2017-12-29T20:00:20.707Z,86.80
2017-12-29T20:02:48.249Z,87.80
2017-12-29T20:05:17.311Z,89.20
2017-12-29T20:07:44.907Z,89.10
2017-12-29T20:10:12.608Z,89.80
2017-12-29T20:12:40.222Z,90.00
2017-12-29T20:15:07.798Z,90.10
2017-12-29T20:17:35.607Z,90.30
2017-12-29T20:20:04.014Z,90.20
2017-12-29T20:22:32.378Z,90.20
2017-12-29T20:25:00.734Z,88.50
2017-12-29T20:27:28.347Z,88.40
2017-12-29T20:29:55.937Z,87.80
2017-12-29T20:32:23.540Z,86.80
2017-12-29T20:34:52.062Z,84.20
2017-12-29T20:37:20.425Z,82.80
2017-12-29T20:39:48.066Z,82.80
2017-12-29T20:42:17.295Z,82.60
2017-12-29T20:44:45.001Z,82.60
2017-12-29T20:47:12.710Z,81.90
2017-12-29T20:49:40.439Z,83.50
2017-12-29T20:52:08.173Z,84.30
2017-12-29T20:54:35.784Z,83.90
2017-12-29T20:57:03.425Z,80.90
2017-12-29T20:59:31.066Z,80.00
2017-12-29T21:01:58.660Z,79.40
2017-12-29T21:04:26.509Z,78.40
2017-12-29T21:06:54.887Z,79.40
2017-12-29T21:09:22.532Z,79.30
2017-12-29T21:11:50.761Z,81.20
2017-12-29T21:14:18.399Z,84.90
2017-12-29T21:16:45.997Z,86.90
2017-12-29T21:19:14.642Z,89.10
2017-12-29T21:21:42.285Z,90.00
2017-12-29T21:24:10.080Z,90.50
2017-12-29T21:26:38.182Z,90.70
2017-12-29T21:29:05.835Z,91.10
2017-12-29T21:31:33.522Z,91.40
2017-12-29T21:34:01.400Z,91.50
2017-12-29T21:36:29.100Z,91.60
2017-12-29T21:38:56.772Z,91.80
2017-12-29T21:41:25.434Z,92.50
2017-12-29T21:43:55.215Z,92.60
2017-12-29T21:46:23.046Z,92.60
2017-12-29T21:48:51.018Z,92.80
2017-12-29T21:51:18.609Z,92.80
2017-12-29T21:53:46.974Z,93.00
2017-12-29T21:56:17.507Z,93.00
2017-12-29T21:58:45.287Z,93.00
2017-12-29T22:01:13.960Z,93.20
2017-12-29T22:03:42.415Z,93.30
2017-12-29T22:06:10.827Z,93.40
2017-12-29T22:08:38.565Z,93.40
2017-12-29T22:11:06.633Z,93.50
2017-12-29T22:13:34.975Z,93.50
2017-12-29T22:16:02.628Z,93.50
2017-12-29T22:18:30.573Z,93.40
2017-12-29T22:20:58.260Z,93.40
2017-12-29T22:23:26.265Z,93.40
2017-12-29T22:25:54.070Z,93.50
2017-12-29T22:28:21.687Z,93.50
2017-12-29T22:30:50.599Z,93.40
2017-12-29T22:33:18.343Z,93.30
2017-12-29T22:35:46.778Z,93.40
2017-12-29T22:38:16.852Z,93.40
2017-12-29T22:40:44.545Z,93.50
2017-12-29T22:43:13.071Z,93.70
2017-12-29T22:45:40.887Z,93.90
2017-12-29T22:48:10.630Z,94.00
2017-12-29T22:50:38.297Z,94.10
2017-12-29T22:53:05.976Z,94.70
2017-12-29T22:55:34.447Z,95.70
2017-12-29T22:58:02.113Z,95.70
2017-12-29T23:00:30.541Z,95.70
2017-12-29T23:02:58.424Z,95.60
2017-12-29T23:05:27.568Z,95.20
2017-12-29T23:07:58.873Z,94.80
2017-12-29T23:10:26.519Z,94.70
2017-12-29T23:12:54.318Z,94.90
2017-12-29T23:15:22.687Z,94.90
2017-12-29T23:17:50.717Z,94.90
2017-12-29T23:20:18.427Z,94.90
2017-12-29T23:22:46.074Z,94.70
2017-12-29T23:25:24.698Z,94.60
2017-12-29T23:33:01.279Z,94.50
2017-12-29T23:35:28.939Z,94.70
2017-12-29T23:37:56.510Z,94.70
2017-12-29T23:40:24.930Z,94.70
2017-12-29T23:42:52.519Z,94.80
2017-12-29T23:45:20.107Z,95.00
2017-12-29T23:47:47.710Z,95.20
2017-12-29T23:50:16.473Z,95.10
2017-12-29T23:52:44.069Z,95.20
2017-12-29T23:55:12.955Z,95.10
2017-12-29T23:57:42.113Z,95.20
